Time;durP1;ratioP1;P1;durP2;ratioP2;P2;SDS_P1;SDS_P2;PMS_P1;PMS_P2;Temp;Humidity;BMP_temperature;BMP_pressure;BME280_temperature;BME280_humidity;BME280_pressure;Samples;Min_cycle;Max_cycle;Signal;HPM_P1;HPM_P2
2023/01/30 00:01:36;;;;;;;;;;;;;;;5.95;60.65;99163.19;4988491;28;19922;-82
2023/01/30 00:04:01;;;;;;;;;;;;;;;5.95;59.96;99164.00;4971722;28;19921;-83
2023/01/30 00:06:27;;;;;;;;;;;;;;;5.96;60.06;99160.53;5005627;28;19918;-82
2023/01/30 00:08:52;;;;;;;;;;;;;;;5.93;60.35;99152.91;5002727;28;19917;-82
2023/01/30 00:11:18;;;;;;;;;;;;;;;5.92;60.44;99156.38;5004328;28;19917;-81
2023/01/30 00:13:43;;;;;;;;;;;;;;;5.95;60.12;99156.25;4973306;28;19925;-81
2023/01/30 00:16:09;;;;;;;;;;;;;;;5.94;60.37;99153.72;5002896;28;19926;-81
2023/01/30 00:18:35;;;;;;;;;;;;;;;5.95;60.44;99163.19;4987344;28;19918;-82
2023/01/30 00:21:01;;;;;;;;;;;;;;;5.94;60.31;99157.13;4970902;28;19957;-81
2023/01/30 00:23:26;;;;;;;;;;;;;;;5.94;59.99;99164.91;4971638;28;19922;-81
2023/01/30 00:25:51;;;;;;;;;;;;;;;5.94;60.27;99162.31;4985105;28;19932;-81
2023/01/30 00:28:17;;;;;;;;;;;;;;;5.93;60.07;99159.81;4986503;28;20392;-81
2023/01/30 00:30:42;;;;;;;;;;;;;;;5.91;60.84;99159.88;4971183;28;19926;-81
2023/01/30 00:33:08;;;;;;;;;;;;;;;5.91;59.99;99156.47;4973145;28;19957;-80
2023/01/30 00:35:33;;;;;;;;;;;;;;;5.92;60.33;99152.97;5008500;28;20004;-80
2023/01/30 00:37:58;;;;;;;;;;;;;;;5.90;60.39;99153.03;4997096;28;19968;-80
2023/01/30 00:40:24;;;;;;;;;;;;;;;5.90;60.28;99153.03;4997283;28;19979;-80
2023/01/30 00:48:17;;;;;;;;;;;;;;;5.90;59.99;99149.59;5014936;28;19926;-79
2023/01/30 00:50:42;;;;;;;;;;;;;;;5.88;60.49;99149.72;4980314;28;20008;-79
2023/01/30 00:53:08;;;;;;;;;;;;;;;5.88;60.08;99146.25;4996669;28;19940;-80
2023/01/30 00:55:34;;;;;;;;;;;;;;;5.88;60.49;99148.84;5014125;28;19924;-80
2023/01/30 00:57:59;;;;;;;;;;;;;;;5.88;60.51;99144.53;4996860;28;19921;-80
2023/01/30 01:00:24;;;;;;;;;;;;;;;5.87;60.46;99150.59;4996904;28;19975;-80
2023/01/30 01:02:50;;;;;;;;;;;;;;;5.88;60.79;99149.72;4996458;28;20312;-79
2023/01/30 01:05:15;;;;;;;;;;;;;;;5.88;60.58;99141.94;5014579;28;20011;-79
2023/01/30 01:07:40;;;;;;;;;;;;;;;5.88;60.29;99144.53;4980398;28;19918;-80
2023/01/30 01:10:06;;;;;;;;;;;;;;;5.87;60.35;99139.41;4996676;28;20016;-81
2023/01/30 01:12:32;;;;;;;;;;;;;;;5.88;60.69;99138.47;4996976;28;19918;-81
2023/01/30 01:14:57;;;;;;;;;;;;;;;5.88;60.52;99131.56;5014094;28;19940;-83
2023/01/30 01:17:22;;;;;;;;;;;;;;;5.89;60.29;99132.41;4996117;28;19975;-81
2023/01/30 01:19:48;;;;;;;;;;;;;;;5.88;60.68;99128.13;5013864;28;20063;-81
2023/01/30 01:22:13;;;;;;;;;;;;;;;5.87;59.86;99132.47;4995573;28;19918;-82
2023/01/30 01:24:38;;;;;;;;;;;;;;;5.87;60.67;99127.28;4980182;28;19917;-82
2023/01/30 01:27:03;;;;;;;;;;;;;;;5.87;60.12;99127.28;4996592;28;20430;-82
2023/01/30 01:29:29;;;;;;;;;;;;;;;5.85;60.19;99117.91;4979968;28;19918;-83
2023/01/30 01:31:54;;;;;;;;;;;;;;;5.83;60.25;99119.75;4980159;28;19917;-83
2023/01/30 01:34:19;;;;;;;;;;;;;;;5.84;59.75;99126.63;4979793;28;19987;-82
2023/01/30 01:36:47;;;;;;;;;;;;;;;5.83;59.66;99115.41;4996063;28;19917;-83
2023/01/30 01:39:12;;;;;;;;;;;;;;;5.84;59.88;99118.84;4992361;28;20332;-82
2023/01/30 01:41:38;;;;;;;;;;;;;;;5.84;60.17;99118.84;4992934;28;19930;-83
2023/01/30 01:44:03;;;;;;;;;;;;;;;5.82;59.75;99112.88;4992849;28;20363;-82
2023/01/30 01:46:37;;;;;;;;;;;;;;;5.82;60.21;99112.88;4994187;28;19968;-82
2023/01/30 01:49:04;;;;;;;;;;;;;;;5.80;60.05;99113.81;4977135;28;20353;-83
2023/01/30 01:52:02;;;;;;;;;;;;;;;5.79;59.69;99100.94;4976557;28;19918;-82
2023/01/30 01:54:29;;;;;;;;;;;;;;;5.77;59.80;99094.97;4934100;29;19922;-83
2023/01/30 01:56:55;;;;;;;;;;;;;;;5.76;59.51;99093.31;4902121;29;19934;-83
2023/01/30 01:59:29;;;;;;;;;;;;;;;5.74;59.51;99092.53;4917784;29;20424;-83
2023/01/30 02:01:55;;;;;;;;;;;;;;;5.71;60.01;99096.13;4918127;29;20005;-82
2023/01/30 02:05:00;;;;;;;;;;;;;;;5.71;59.08;99095.28;4918141;29;20422;-82
2023/01/30 02:07:05;;;;;;;;;;;;;;;5.69;59.49;99102.31;4920366;29;19919;-82
2023/01/30 02:09:31;;;;;;;;;;;;;;;5.67;59.25;99099.78;4901859;29;19926;-82
2023/01/30 02:11:57;;;;;;;;;;;;;;;5.66;59.55;99092.09;4902027;29;19918;-79
2023/01/30 02:14:22;;;;;;;;;;;;;;;5.66;59.60;99092.09;4917814;29;19919;-78
2023/01/30 02:16:47;;;;;;;;;;;;;;;5.63;59.57;99095.69;4918014;29;19918;-80
2023/01/30 02:19:21;;;;;;;;;;;;;;;5.61;59.50;99087.16;4933657;29;20005;-81
2023/01/30 02:21:52;;;;;;;;;;;;;;;5.61;59.30;99094.91;4933564;29;19962;-80
2023/01/30 02:24:18;;;;;;;;;;;;;;;5.61;58.93;99092.31;4917848;29;19941;-80
2023/01/30 02:27:01;;;;;;;;;;;;;;;5.59;59.33;99094.16;4933523;29;20445;-81
2023/01/30 02:29:33;;;;;;;;;;;;;;;5.58;59.69;99088.16;4949663;28;19917;-79
2023/01/30 02:31:58;;;;;;;;;;;;;;;5.57;59.02;99077.88;4993707;28;19932;-79
2023/01/30 02:34:44;;;;;;;;;;;;;;;5.56;59.02;99077.00;4997427;28;20447;-79
2023/01/30 02:37:09;;;;;;;;;;;;;;;5.55;59.63;99080.53;4997455;28;19928;-79
2023/01/30 02:39:43;;;;;;;;;;;;;;;5.54;59.46;99078.84;5010539;28;19922;-79
2023/01/30 02:42:11;;;;;;;;;;;;;;;5.55;59.65;99074.50;4999480;28;20012;-80
2023/01/30 02:44:57;;;;;;;;;;;;;;;5.56;59.01;99071.84;4983001;28;20400;-79
2023/01/30 02:47:28;;;;;;;;;;;;;;;5.54;59.62;99068.50;4918081;29;19975;-80
2023/01/30 02:49:55;;;;;;;;;;;;;;;5.53;59.44;99066.81;4902715;29;19919;-79
2023/01/30 02:52:20;;;;;;;;;;;;;;;5.55;59.00;99061.56;4917967;29;20055;-79
2023/01/30 02:54:45;;;;;;;;;;;;;;;5.54;59.52;99058.13;4902728;29;20399;-79
2023/01/30 02:57:20;;;;;;;;;;;;;;;5.54;59.11;99068.50;4902011;29;20399;-80
2023/01/30 02:59:46;;;;;;;;;;;;;;;5.53;59.99;99060.81;4886446;29;19919;-79
2023/01/30 03:02:14;;;;;;;;;;;;;;;5.52;59.56;99064.28;4886254;29;19926;-80
2023/01/30 03:04:57;;;;;;;;;;;;;;;5.52;59.50;99066.88;4926541;29;19966;-80
2023/01/30 03:07:33;;;;;;;;;;;;;;;5.51;59.07;99066.06;4936741;29;19993;-80
2023/01/30 03:10:08;;;;;;;;;;;;;;;5.49;59.08;99072.22;4936757;29;20021;-80
2023/01/30 03:12:42;;;;;;;;;;;;;;;5.47;59.42;99066.28;4936738;29;19922;-80
2023/01/30 03:15:09;;;;;;;;;;;;;;;5.47;59.52;99072.31;4936690;29;19923;-79
2023/01/30 03:17:35;;;;;;;;;;;;;;;5.48;59.26;99073.16;4920670;29;20400;-80
2023/01/30 03:20:00;;;;;;;;;;;;;;;5.47;59.79;99071.47;4920533;29;20009;-81
2023/01/30 03:22:25;;;;;;;;;;;;;;;5.46;59.52;99068.03;4920700;29;20080;-81
2023/01/30 03:24:51;;;;;;;;;;;;;;;5.46;59.48;99065.47;4985086;28;19971;-81
2023/01/30 03:27:16;;;;;;;;;;;;;;;5.47;59.69;99067.16;5018137;28;19917;-81
2023/01/30 03:29:41;;;;;;;;;;;;;;;5.46;59.75;99068.03;5018176;28;19917;-81
2023/01/30 03:32:07;;;;;;;;;;;;;;;5.46;59.40;99068.03;5018880;28;19921;-82
2023/01/30 03:34:32;;;;;;;;;;;;;;;5.45;59.70;99066.34;5018143;28;19925;-82
2023/01/30 03:36:57;;;;;;;;;;;;;;;5.44;59.42;99064.72;5018059;28;19917;-82
2023/01/30 03:39:23;;;;;;;;;;;;;;;5.43;59.67;99070.78;5017705;28;19921;-80
2023/01/30 03:41:48;;;;;;;;;;;;;;;5.44;59.42;99062.13;5018457;28;19921;-81
2023/01/30 03:44:14;;;;;;;;;;;;;;;5.43;59.70;99066.44;5017372;28;19939;-81
2023/01/30 03:46:39;;;;;;;;;;;;;;;5.43;59.67;99057.84;5018186;28;19981;-81
2023/01/30 03:49:04;;;;;;;;;;;;;;;5.43;59.91;99056.09;5018797;28;20368;-81
2023/01/30 03:51:29;;;;;;;;;;;;;;;5.46;59.49;99064.63;5017778;28;19928;-80
2023/01/30 03:53:55;;;;;;;;;;;;;;;5.44;59.54;99059.53;5017780;28;19921;-81
2023/01/30 03:56:20;;;;;;;;;;;;;;;5.44;60.07;99059.53;5017897;28;19928;-80
2023/01/30 03:58:45;;;;;;;;;;;;;;;5.45;59.82;99066.34;5035227;28;19917;-80
2023/01/30 04:01:11;;;;;;;;;;;;;;;5.44;59.71;99062.13;5001128;28;19917;-80
2023/01/30 04:03:36;;;;;;;;;;;;;;;5.43;59.65;99057.84;5001011;28;19917;-80
2023/01/30 04:06:01;;;;;;;;;;;;;;;5.43;60.04;99061.25;5034995;28;20319;-80
2023/01/30 04:08:27;;;;;;;;;;;;;;;5.42;59.26;99058.75;5017383;28;19925;-80
2023/01/30 04:10:52;;;;;;;;;;;;;;;5.41;59.70;99057.91;5017162;28;20000;-79
2023/01/30 04:13:17;;;;;;;;;;;;;;;5.41;59.61;99054.50;5036062;28;20368;-80
2023/01/30 04:15:42;;;;;;;;;;;;;;;5.40;59.74;99047.63;5036447;28;19959;-79
2023/01/30 04:18:08;;;;;;;;;;;;;;;5.41;59.85;99049.31;5018044;28;20368;-79
2023/01/30 04:20:33;;;;;;;;;;;;;;;5.39;60.23;99053.72;5016668;28;19917;-79
2023/01/30 04:22:58;;;;;;;;;;;;;;;5.37;59.96;99047.78;5016696;28;19956;-79
2023/01/30 04:25:23;;;;;;;;;;;;;;;5.37;59.83;99052.97;5035071;28;19917;-79
2023/01/30 04:27:49;;;;;;;;;;;;;;;5.39;59.85;99045.94;5034631;28;19948;-79
2023/01/30 04:30:14;;;;;;;;;;;;;;;5.39;59.99;99053.72;5017013;28;19947;-80
2023/01/30 04:32:39;;;;;;;;;;;;;;;5.39;60.03;99051.13;5034307;28;19921;-79
2023/01/30 04:35:05;;;;;;;;;;;;;;;5.39;59.49;99053.72;5002292;28;19922;-81
2023/01/30 04:37:30;;;;;;;;;;;;;;;5.41;59.61;99054.50;4997226;28;20282;-79
2023/01/30 04:39:56;;;;;;;;;;;;;;;5.41;60.28;99057.09;5013072;28;19925;-79
2023/01/30 04:42:21;;;;;;;;;;;;;;;5.42;59.27;99061.34;5013586;28;19928;-80
2023/01/30 04:44:46;;;;;;;;;;;;;;;5.41;59.72;99057.09;4980441;28;19928;-84
2023/01/30 04:47:12;;;;;;;;;;;;;;;5.41;59.64;99055.34;4980050;28;19932;-85
2023/01/30 04:49:37;;;;;;;;;;;;;;;5.41;59.74;99059.69;4996666;28;19921;-84
2023/01/30 04:52:02;;;;;;;;;;;;;;;5.38;59.56;99052.88;4982513;28;19967;-82
2023/01/30 04:54:28;;;;;;;;;;;;;;;5.38;59.28;99045.13;4995739;28;19918;-78
2023/01/30 04:56:53;;;;;;;;;;;;;;;5.39;59.29;99048.53;5013329;28;20435;-84
2023/01/30 04:59:18;;;;;;;;;;;;;;;5.44;66.11;99052.59;4996995;28;19961;-72
2023/01/30 05:01:44;;;;;;;;;;;;;;;5.50;64.91;99051.44;5013539;28;19953;-71
2023/01/30 05:04:09;;;;;;;;;;;;;;;5.50;63.14;99045.41;5014533;28;19917;-72
2023/01/30 05:06:35;;;;;;;;;;;;;;;5.49;63.08;99049.78;4996529;28;20301;-68
2023/01/30 05:09:00;;;;;;;;;;;;;;;5.50;64.67;99048.00;4980477;28;19960;-72
2023/01/30 05:11:26;;;;;;;;;;;;;;;5.48;63.17;99047.25;4980242;28;20365;-72
2023/01/30 05:13:51;;;;;;;;;;;;;;;5.44;63.13;99047.41;4996485;28;19941;-72
2023/01/30 05:16:17;;;;;;;;;;;;;;;5.40;62.42;99056.22;5014023;28;19917;-72
2023/01/30 05:18:42;;;;;;;;;;;;;;;5.40;62.08;99052.81;4996516;28;20301;-73
2023/01/30 05:21:10;;;;;;;;;;;;;;;5.34;62.00;99056.53;4980390;28;19921;-74
2023/01/30 05:23:35;;;;;;;;;;;;;;;5.34;62.02;99055.72;4978663;28;19917;-74
2023/01/30 05:26:01;;;;;;;;;;;;;;;5.31;61.70;99054.09;4977226;28;19924;-74
2023/01/30 05:28:26;;;;;;;;;;;;;;;5.31;61.54;99059.28;4993112;28;19918;-74
2023/01/30 05:30:52;;;;;;;;;;;;;;;5.30;61.61;99059.34;4993875;28;19925;-75
2023/01/30 05:33:17;;;;;;;;;;;;;;;5.29;61.30;99057.69;4993567;28;19921;-75
2023/01/30 05:35:46;;;;;;;;;;;;;;;5.27;61.64;99049.19;4994653;28;20375;-75
2023/01/30 05:38:11;;;;;;;;;;;;;;;5.28;61.73;99054.25;5012725;28;19921;-74
2023/01/30 05:40:37;;;;;;;;;;;;;;;5.29;61.26;99057.69;5012995;28;19921;-74
2023/01/30 05:43:02;;;;;;;;;;;;;;;5.29;61.26;99052.50;5013252;28;19918;-74
2023/01/30 05:45:27;;;;;;;;;;;;;;;5.30;60.99;99060.22;4979146;28;19921;-73
2023/01/30 05:47:53;;;;;;;;;;;;;;;5.29;61.17;99057.69;4995788;28;20443;-74
2023/01/30 05:50:18;;;;;;;;;;;;;;;5.29;61.18;99058.53;4979882;28;19925;-74
2023/01/30 05:52:43;;;;;;;;;;;;;;;5.31;61.25;99066.22;4995693;28;20285;-73
2023/01/30 05:55:09;;;;;;;;;;;;;;;5.30;60.45;99065.38;4979454;28;19972;-75
2023/01/30 05:57:34;;;;;;;;;;;;;;;5.30;61.20;99064.53;5013547;28;19918;-74
2023/01/30 05:59:59;;;;;;;;;;;;;;;5.31;60.77;99066.22;5013251;28;19949;-74
2023/01/30 06:02:24;;;;;;;;;;;;;;;5.30;60.19;99067.13;4995641;28;19924;-74
2023/01/30 06:04:50;;;;;;;;;;;;;;;5.30;60.50;99067.97;4979214;28;20381;-75
2023/01/30 06:07:15;;;;;;;;;;;;;;;5.32;60.63;99067.91;4979164;28;19921;-74
2023/01/30 06:09:40;;;;;;;;;;;;;;;5.32;60.34;99065.31;4995490;28;19917;-76
2023/01/30 06:12:06;;;;;;;;;;;;;;;5.33;60.03;99069.56;4995884;28;19917;-76
2023/01/30 06:14:31;;;;;;;;;;;;;;;5.34;60.30;99072.06;4995956;28;19918;-76
2023/01/30 06:16:56;;;;;;;;;;;;;;;5.35;60.10;99070.34;4979421;28;19921;-75
2023/01/30 06:19:22;;;;;;;;;;;;;;;5.36;60.56;99069.41;4979308;28;19918;-75
2023/01/30 06:21:47;;;;;;;;;;;;;;;5.38;60.45;99080.53;4979305;28;19924;-76
2023/01/30 06:24:12;;;;;;;;;;;;;;;5.38;59.70;99076.19;4979185;28;19931;-74
2023/01/30 06:26:38;;;;;;;;;;;;;;;5.38;60.00;99076.19;4995830;28;20003;-74
2023/01/30 06:29:03;;;;;;;;;;;;;;;5.41;59.53;99072.63;4979019;28;19921;-74
2023/01/30 06:31:28;;;;;;;;;;;;;;;5.41;59.68;99072.63;5012883;28;19917;-75
2023/01/30 06:33:53;;;;;;;;;;;;;;;5.43;59.42;99071.63;4978909;28;19918;-75
2023/01/30 06:36:19;;;;;;;;;;;;;;;5.44;59.59;99078.47;5013367;28;19975;-80
2023/01/30 06:38:44;;;;;;;;;;;;;;;5.46;60.04;99073.22;4978752;28;19921;-75
2023/01/30 06:41:09;;;;;;;;;;;;;;;5.49;59.48;99075.66;4995273;28;19948;-76
2023/01/30 06:43:35;;;;;;;;;;;;;;;5.50;59.64;99073.91;4994789;28;19921;-75
2023/01/30 06:46:00;;;;;;;;;;;;;;;5.53;59.34;99071.16;4979402;28;19921;-77
2023/01/30 06:48:25;;;;;;;;;;;;;;;5.56;59.38;99060.66;4978660;28;19921;-76
2023/01/30 06:50:51;;;;;;;;;;;;;;;5.58;59.70;99064.00;4995005;28;19967;-76
2023/01/30 06:53:16;;;;;;;;;;;;;;;5.69;62.62;99063.44;4985406;28;19918;-76
2023/01/30 06:55:41;;;;;;;;;;;;;;;5.78;63.03;99062.97;4982470;28;19932;-74
2023/01/30 06:58:08;;;;;;;;;;;;;;;5.77;62.61;99064.75;4995657;28;19925;-76
2023/01/30 07:00:33;;;;;;;;;;;;;;;5.78;61.75;99062.97;4978419;28;20080;-75
2023/01/30 07:02:58;;;;;;;;;;;;;;;5.80;61.86;99064.59;4994737;28;20020;-75
2023/01/30 07:05:24;;;;;;;;;;;;;;;5.85;61.34;99071.28;4994237;28;19965;-77
2023/01/30 07:07:49;;;;;;;;;;;;;;;5.90;61.18;99071.88;4994536;28;19918;-75
2023/01/30 07:10:14;;;;;;;;;;;;;;;5.91;60.67;99071.78;4978740;28;19918;-78
2023/01/30 07:12:40;;;;;;;;;;;;;;;6.07;65.13;99071.88;4978563;28;19941;-75
2023/01/30 07:15:06;;;;;;;;;;;;;;;6.13;63.85;99071.53;4979293;28;19917;-75
2023/01/30 07:17:31;;;;;;;;;;;;;;;6.16;62.09;99071.38;4978865;28;20281;-75
2023/01/30 07:19:56;;;;;;;;;;;;;;;6.20;62.12;99073.81;4996841;28;19977;-76
2023/01/30 07:22:22;;;;;;;;;;;;;;;6.18;61.60;99070.47;4982543;28;20012;-76
2023/01/30 07:24:47;;;;;;;;;;;;;;;6.16;61.69;99067.97;5016371;28;19976;-75
2023/01/30 07:27:12;;;;;;;;;;;;;;;6.18;61.56;99070.47;4982254;28;19976;-77
2023/01/30 07:29:38;;;;;;;;;;;;;;;6.18;60.96;99058.34;4982884;28;20005;-80
2023/01/30 07:32:03;;;;;;;;;;;;;;;6.21;60.94;99059.94;4998884;28;19917;-78
2023/01/30 07:34:29;;;;;;;;;;;;;;;6.22;60.91;99049.50;4998710;28;19918;-78
2023/01/30 07:36:54;;;;;;;;;;;;;;;6.33;66.29;99061.88;4998902;28;19917;-75
2023/01/30 07:39:19;;;;;;;;;;;;;;;6.49;67.19;99059.28;4998253;28;20446;-78
2023/01/30 07:41:45;;;;;;;;;;;;;;;6.54;64.94;99054.69;4982105;28;19922;-76
2023/01/30 07:44:10;;;;;;;;;;;;;;;6.57;62.98;99057.13;4998866;28;19968;-76
2023/01/30 07:46:36;;;;;;;;;;;;;;;6.61;62.40;99056.03;5015750;28;19917;-76
2023/01/30 07:49:01;;;;;;;;;;;;;;;6.64;62.06;99049.81;4998521;28;19917;-77
2023/01/30 07:51:27;;;;;;;;;;;;;;;6.69;61.67;99046.06;4982110;28;20289;-77
2023/01/30 07:53:52;;;;;;;;;;;;;;;6.71;60.37;99043.38;4980339;28;19943;-77
2023/01/30 07:56:20;;;;;;;;;;;;;;;6.74;60.08;99043.22;4996560;28;20316;-77
2023/01/30 07:58:46;;;;;;;;;;;;;;;6.80;60.28;99036.84;4997176;28;20364;-75
2023/01/30 08:01:11;;;;;;;;;;;;;;;6.86;59.92;99032.16;4980470;28;19949;-77
2023/01/30 08:03:37;;;;;;;;;;;;;;;6.91;59.21;99026.72;4980288;28;19917;-76
2023/01/30 08:06:02;;;;;;;;;;;;;;;6.97;58.68;99031.53;4996369;28;19993;-76
2023/01/30 08:08:27;;;;;;;;;;;;;;;7.00;59.10;99028.75;4981031;28;20369;-77
2023/01/30 08:10:53;;;;;;;;;;;;;;;7.00;58.20;99026.16;4981641;28;20012;-78
2023/01/30 08:13:18;;;;;;;;;;;;;;;7.07;58.03;99024.09;5015365;28;19917;-79
2023/01/30 08:15:43;;;;;;;;;;;;;;;7.17;57.94;99019.19;4981927;28;19917;-76
2023/01/30 08:18:09;;;;;;;;;;;;;;;7.27;57.64;99009.94;4981608;28;19925;-77
2023/01/30 08:20:34;;;;;;;;;;;;;;;7.30;56.66;99007.16;4997905;28;19918;-77
2023/01/30 08:23:01;;;;;;;;;;;;;;;7.35;56.66;99015.53;4981466;28;20349;-77
2023/01/30 08:25:26;;;;;;;;;;;;;;;7.38;56.65;99011.91;4981608;28;20415;-77
2023/01/30 08:27:51;;;;;;;;;;;;;;;7.45;56.20;99014.97;4981435;28;19917;-79
2023/01/30 08:30:17;;;;;;;;;;;;;;;7.51;56.01;99018.06;4981169;28;19918;-77
2023/01/30 08:32:43;;;;;;;;;;;;;;;7.51;55.62;99010.28;4981260;28;19925;-77
2023/01/30 08:35:08;;;;;;;;;;;;;;;7.69;55.23;99016.13;4981323;28;19917;-79
2023/01/30 08:37:34;;;;;;;;;;;;;;;7.93;54.74;99021.59;4981571;28;19918;-78
2023/01/30 08:39:59;;;;;;;;;;;;;;;8.03;54.41;99013.25;4997592;28;20332;-77
2023/01/30 08:42:25;;;;;;;;;;;;;;;8.14;53.85;99016.00;4981747;28;19975;-78
2023/01/30 08:44:50;;;;;;;;;;;;;;;8.19;53.93;99015.72;5015051;28;19944;-77
2023/01/30 08:47:15;;;;;;;;;;;;;;;8.19;53.63;99026.97;4980974;28;19924;-78
2023/01/30 08:49:41;;;;;;;;;;;;;;;8.10;53.89;99023.16;4997208;28;19925;-77
2023/01/30 08:52:06;;;;;;;;;;;;;;;8.05;54.00;99020.03;4997298;28;19917;-77
2023/01/30 08:54:31;;;;;;;;;;;;;;;8.02;54.10;99012.41;4997549;28;20297;-78
2023/01/30 08:56:57;;;;;;;;;;;;;;;8.01;53.70;99018.53;4996451;28;19963;-77
2023/01/30 08:59:22;;;;;;;;;;;;;;;8.01;54.01;99013.31;4980816;28;19992;-76
2023/01/30 09:01:47;;;;;;;;;;;;;;;8.05;53.50;99013.97;4997055;28;19918;-77
2023/01/30 09:04:13;;;;;;;;;;;;;;;8.04;53.60;99012.31;4980796;28;19917;-76
2023/01/30 09:06:38;;;;;;;;;;;;;;;8.08;53.62;99006.84;4980674;28;20435;-77
2023/01/30 09:09:03;;;;;;;;;;;;;;;8.10;53.53;98999.75;4980475;28;19928;-75
2023/01/30 09:11:29;;;;;;;;;;;;;;;8.11;53.07;99000.59;4997563;28;19917;-76
2023/01/30 09:13:54;;;;;;;;;;;;;;;8.11;53.50;98996.25;4980577;28;19918;-80
2023/01/30 09:16:19;;;;;;;;;;;;;;;8.12;53.11;98984.06;4980331;28;19917;-75
2023/01/30 09:18:45;;;;;;;;;;;;;;;8.08;52.94;98983.44;4980513;28;19918;-77
2023/01/30 09:21:10;;;;;;;;;;;;;;;8.05;53.22;98975.81;4980672;28;19960;-77
2023/01/30 09:23:36;;;;;;;;;;;;;;;8.04;52.90;98978.53;4996525;28;19918;-76
2023/01/30 09:26:01;;;;;;;;;;;;;;;7.99;52.65;98981.41;4996455;28;19972;-73
2023/01/30 09:28:27;;;;;;;;;;;;;;;7.95;52.95;98970.38;4980665;28;20379;-75
2023/01/30 09:30:52;;;;;;;;;;;;;;;7.92;52.93;98967.09;4979838;28;19917;-78
2023/01/30 09:33:19;;;;;;;;;;;;;;;7.89;52.77;98962.94;4996636;28;19932;-79
2023/01/30 09:35:47;;;;;;;;;;;;;;;7.91;52.97;98958.47;4980275;28;19928;-78
2023/01/30 09:38:13;;;;;;;;;;;;;;;7.94;52.78;98955.69;4979989;28;19967;-76
2023/01/30 09:40:41;;;;;;;;;;;;;;;7.97;53.13;98946.88;4980011;28;19926;-76
2023/01/30 09:43:13;;;;;;;;;;;;;;;7.92;53.39;98949.75;4979433;28;20477;-78
2023/01/30 09:45:41;;;;;;;;;;;;;;;7.92;53.30;98944.56;4980268;28;20454;-76
2023/01/30 09:48:12;;;;;;;;;;;;;;;7.88;53.24;98942.25;4996157;28;19918;-78
2023/01/30 09:50:37;;;;;;;;;;;;;;;7.78;52.84;98937.59;4979830;28;19918;-76
2023/01/30 09:53:13;;;;;;;;;;;;;;;7.73;53.29;98928.41;4995825;28;19918;-77
2023/01/30 09:55:40;;;;;;;;;;;;;;;7.68;53.54;98933.88;4996078;28;19921;-76
2023/01/30 09:58:07;;;;;;;;;;;;;;;7.66;53.35;98932.34;4979960;28;20304;-78
2023/01/30 10:00:34;;;;;;;;;;;;;;;7.64;53.45;98931.56;4995811;28;19918;-77
2023/01/30 10:03:09;;;;;;;;;;;;;;;7.61;53.52;98925.63;4980308;28;20297;-77
2023/01/30 10:05:53;;;;;;;;;;;;;;;7.58;53.81;98914.59;4995778;28;19917;-77
2023/01/30 10:08:27;;;;;;;;;;;;;;;7.55;53.56;98910.41;4995672;28;19924;-78
2023/01/30 10:10:56;;;;;;;;;;;;;;;7.50;53.95;98903.84;4995793;28;19918;-76
2023/01/30 10:13:40;;;;;;;;;;;;;;;7.44;54.08;98894.66;4995644;28;19922;-75
2023/01/30 10:16:05;;;;;;;;;;;;;;;7.40;54.00;98898.34;5013271;28;19917;-79
2023/01/30 10:18:40;;;;;;;;;;;;;;;7.38;53.95;98889.84;4995982;28;19928;-75
2023/01/30 10:21:16;;;;;;;;;;;;;;;7.36;54.48;98876.13;5013196;28;19921;-75
2023/01/30 10:23:48;;;;;;;;;;;;;;;7.38;54.05;98874.25;4995703;28;19921;-77
2023/01/30 10:26:15;;;;;;;;;;;;;;;7.37;54.36;98872.59;4979303;28;19924;-77
2023/01/30 10:28:42;;;;;;;;;;;;;;;7.36;54.49;98863.13;4995741;28;20399;-75
2023/01/30 10:31:09;;;;;;;;;;;;;;;7.36;53.99;98857.94;4979276;28;19921;-75
2023/01/30 10:33:39;;;;;;;;;;;;;;;7.33;54.44;98848.56;4979291;28;19952;-76
2023/01/30 10:36:14;;;;;;;;;;;;;;;7.34;54.59;98854.63;4979748;28;20309;-78
2023/01/30 10:38:43;;;;;;;;;;;;;;;7.36;54.43;98845.78;4978791;28;19921;-74
2023/01/30 10:41:14;;;;;;;;;;;;;;;7.38;54.13;98848.28;4978934;28;19928;-75
2023/01/30 10:43:44;;;;;;;;;;;;;;;7.38;54.16;98843.09;4995558;28;19917;-75
2023/01/30 10:46:09;;;;;;;;;;;;;;;7.39;54.73;98834.38;4979250;28;20441;-75
2023/01/30 10:48:53;;;;;;;;;;;;;;;7.39;54.15;98831.78;5013003;28;20020;-76
2023/01/30 10:51:27;;;;;;;;;;;;;;;7.39;54.49;98829.19;4995401;28;19918;-75
2023/01/30 10:53:57;;;;;;;;;;;;;;;7.37;54.64;98818.06;4981579;28;19917;-75
2023/01/30 10:56:38;;;;;;;;;;;;;;;7.37;54.55;98818.06;4983201;28;20410;-76
2023/01/30 10:59:26;;;;;;;;;;;;;;;7.39;53.87;98811.84;4999299;28;19980;-76
2023/01/30 11:01:52;;;;;;;;;;;;;;;7.37;54.28;98803.31;4902390;29;19919;-76
2023/01/30 11:04:31;;;;;;;;;;;;;;;7.35;54.63;98802.59;4902456;29;19926;-74
2023/01/30 11:06:56;;;;;;;;;;;;;;;7.38;54.28;98791.16;4902523;29;20084;-77
2023/01/30 11:09:21;;;;;;;;;;;;;;;7.40;54.50;98784.94;4902220;29;20009;-77
2023/01/30 11:11:48;;;;;;;;;;;;;;;7.41;54.50;98784.00;4886508;29;19942;-75
2023/01/30 11:14:13;;;;;;;;;;;;;;;7.43;54.17;98773.50;4902081;29;20010;-75
2023/01/30 11:16:43;;;;;;;;;;;;;;;7.43;54.55;98768.31;4902404;29;20010;-76
2023/01/30 11:19:08;;;;;;;;;;;;;;;7.44;54.42;98767.41;4917554;29;19923;-75
2023/01/30 11:21:33;;;;;;;;;;;;;;;7.45;54.23;98768.22;4902082;29;19926;-76
2023/01/30 11:24:02;;;;;;;;;;;;;;;7.42;54.55;98759.69;4886521;29;19926;-73
2023/01/30 11:26:29;;;;;;;;;;;;;;;7.42;54.42;98756.28;4885849;29;19966;-76
2023/01/30 11:28:54;;;;;;;;;;;;;;;7.41;54.42;98750.22;4885933;29;19974;-75
2023/01/30 11:31:21;;;;;;;;;;;;;;;7.43;54.73;98742.34;4901726;29;19919;-74
2023/01/30 11:33:57;;;;;;;;;;;;;;;7.43;54.21;98739.75;4885886;29;20382;-74
2023/01/30 11:36:27;;;;;;;;;;;;;;;7.47;53.99;98738.63;4901216;29;19919;-75
2023/01/30 11:39:02;;;;;;;;;;;;;;;7.47;54.04;98732.63;4934930;28;20396;-76
2023/01/30 11:41:28;;;;;;;;;;;;;;;7.48;54.51;98731.66;4998473;28;19925;-75
2023/01/30 11:44:00;;;;;;;;;;;;;;;7.54;54.36;98718.28;4982287;28;20343;-76
2023/01/30 11:46:25;;;;;;;;;;;;;;;7.60;53.78;98713.53;4998587;28;19917;-77
2023/01/30 11:48:54;;;;;;;;;;;;;;;7.64;53.90;98708.13;4998256;28;19976;-76
2023/01/30 11:51:22;;;;;;;;;;;;;;;7.69;53.95;98706.09;4981840;28;19918;-75
2023/01/30 11:53:55;;;;;;;;;;;;;;;7.73;54.24;98704.94;5015519;28;19918;-77
2023/01/30 11:56:39;;;;;;;;;;;;;;;7.75;54.25;98700.50;4998021;28;19917;-75
2023/01/30 11:59:16;;;;;;;;;;;;;;;7.78;53.84;98695.09;4982180;28;20320;-75
2023/01/30 12:01:42;;;;;;;;;;;;;;;7.77;54.26;98696.03;5015963;28;20351;-77
2023/01/30 12:04:08;;;;;;;;;;;;;;;7.78;53.93;98695.94;4982079;28;19922;-76
2023/01/30 12:06:34;;;;;;;;;;;;;;;7.78;53.60;98685.53;4981021;28;20381;-75
2023/01/30 12:08:59;;;;;;;;;;;;;;;7.75;53.81;98688.31;5015651;28;19926;-76
2023/01/30 12:11:31;;;;;;;;;;;;;;;7.73;53.85;98676.34;4982183;28;19918;-77
2023/01/30 12:14:15;;;;;;;;;;;;;;;7.72;53.69;98682.50;5015592;28;20000;-76
2023/01/30 12:16:45;;;;;;;;;;;;;;;7.69;54.02;98674.91;4997735;28;19925;-75
2023/01/30 12:19:13;;;;;;;;;;;;;;;7.69;53.74;98675.72;4998382;28;20008;-76
2023/01/30 12:21:51;;;;;;;;;;;;;;;7.68;53.94;98668.88;5015137;28;19918;-75
2023/01/30 12:24:21;;;;;;;;;;;;;;;7.65;54.27;98668.25;4998087;28;20016;-75
2023/01/30 12:26:46;;;;;;;;;;;;;;;7.61;53.70;98665.00;4997786;28;19921;-75
2023/01/30 12:29:18;;;;;;;;;;;;;;;7.56;54.49;98660.13;4997611;28;20010;-75
2023/01/30 12:31:45;;;;;;;;;;;;;;;7.52;54.22;98655.22;5015284;28;19924;-75
2023/01/30 12:34:10;;;;;;;;;;;;;;;7.50;54.15;98644.09;4981231;28;19921;-75
2023/01/30 12:36:40;;;;;;;;;;;;;;;7.45;54.05;98647.00;5015342;28;20460;-74
2023/01/30 12:39:13;;;;;;;;;;;;;;;7.41;54.35;98646.34;4981140;28;19928;-75
2023/01/30 12:41:47;;;;;;;;;;;;;;;7.35;54.91;98644.16;4980975;28;19994;-75
2023/01/30 12:44:19;;;;;;;;;;;;;;;7.31;54.67;98647.88;4997978;28;20373;-75
2023/01/30 12:47:11;;;;;;;;;;;;;;;7.30;54.54;98643.63;4981403;28;19983;-78
2023/01/30 12:49:39;;;;;;;;;;;;;;;7.26;54.88;98639.56;4960457;28;20001;-79
2023/01/30 12:52:24;;;;;;;;;;;;;;;7.23;54.96;98634.56;5014667;28;19917;-76
2023/01/30 12:55:08;;;;;;;;;;;;;;;7.20;54.70;98634.75;4997116;28;19918;-76
2023/01/30 12:57:37;;;;;;;;;;;;;;;7.18;55.22;98637.47;4997134;28;19921;-77
2023/01/30 13:00:05;;;;;;;;;;;;;;;7.16;55.32;98630.69;5014571;28;20036;-78
2023/01/30 13:02:51;;;;;;;;;;;;;;;7.13;55.29;98629.13;4997102;28;19922;-76
2023/01/30 13:05:22;;;;;;;;;;;;;;;7.10;55.50;98629.34;4915841;29;19919;-76